Terminal Aerodrome Forecast
Issued by NWS

Home | Current Version | Previous Version | Text Only | Print | Product List | Glossary On
Versions: 1 2 3 4 5 6 7 8 9 10 11 12 13 14 15 16 17 18 19 20 21
798
FTUS43 KLSX 191858 AAA
TAFCPS
TAF AMD
KCPS 191858Z 1919/2018 09005KT 5SM -RA BR OVC010
      TEMPO 1919/1922 1SM -RA BR BKN008
     FM200000 11004KT 2SM BR VCSH OVC003
     FM200500 VRB03KT 1SM BR OVC003
     FM201000 VRB03KT 1/2SM FG OVC003
     FM201600 16005KT 2SM BR OVC003=

USA.gov is the U.S. government's official web portal to all federal, state and local government web resources and services.